San Antonio, Texas
Traffic Map
Current Weather Conditions
San Antonio, Texas
Few Clouds
Few Clouds
37°
Feels Like: 38°
Wind Chill: 37° Ceiling: Unl
Heat Index: 38° Visibility: 10mi
Dew Point: 18° Wind: 12mph
Humidity: 33% Direction: 130° (SE)
Pressure: 29.98in Gusts: 16mph
Raw Report DataKSKF 292058Z AUTO 13010G14KT 10SM FEW070 37/18 A2998 RMK AO2 SLP143 T03670182 57018 $
Traffic Incident Summary
Active as of:
Severity:
Category:
InformationThere was an issue retrieving the traffic information for this location. Please try a different location or try again shortly.
Advertisements
Track Severe Weather on mobile